sensor_id;sensor_type;location;lat;lon;timestamp;pressure;altitude;pressure_sealevel;temperature;humidity
6096;BME280;25081;42.698;23.298;2022-12-05T00:01:16;96207.91;;;4.24;93.26
6096;BME280;25081;42.698;23.298;2022-12-05T00:03:25;96204.81;;;4.29;93.03
6096;BME280;25081;42.698;23.298;2022-12-05T00:05:39;96208.70;;;4.17;93.20
6096;BME280;25081;42.698;23.298;2022-12-05T00:07:49;96205.27;;;4.24;93.46
6096;BME280;25081;42.698;23.298;2022-12-05T00:10:00;96205.03;;;4.36;93.14
6096;BME280;25081;42.698;23.298;2022-12-05T00:12:10;96208.55;;;4.44;92.54
6096;BME280;25081;42.698;23.298;2022-12-05T00:14:21;96205.25;;;4.50;92.16
6096;BME280;25081;42.698;23.298;2022-12-05T00:16:32;96206.13;;;4.59;91.65
6096;BME280;25081;42.698;23.298;2022-12-05T00:18:42;96205.63;;;4.55;91.71
6096;BME280;25081;42.698;23.298;2022-12-05T00:20:52;96207.06;;;4.46;91.74
6096;BME280;25081;42.698;23.298;2022-12-05T00:23:03;96213.66;;;4.46;91.89
6096;BME280;25081;42.698;23.298;2022-12-05T00:25:13;96210.97;;;4.38;91.96
6096;BME280;25081;42.698;23.298;2022-12-05T00:27:24;96212.80;;;4.41;92.29
6096;BME280;25081;42.698;23.298;2022-12-05T00:29:35;96214.04;;;4.25;92.67
6096;BME280;25081;42.698;23.298;2022-12-05T00:31:44;96219.61;;;4.22;92.99
6096;BME280;25081;42.698;23.298;2022-12-05T00:33:55;96222.80;;;4.29;93.07
6096;BME280;25081;42.698;23.298;2022-12-05T00:36:07;96219.22;;;4.39;92.84
6096;BME280;25081;42.698;23.298;2022-12-05T00:38:17;96225.01;;;4.42;92.45
6096;BME280;25081;42.698;23.298;2022-12-05T00:40:28;96226.03;;;4.45;92.37
6096;BME280;25081;42.698;23.298;2022-12-05T00:42:38;96226.05;;;4.23;92.89
6096;BME280;25081;42.698;23.298;2022-12-05T00:44:50;96221.08;;;4.16;93.56
6096;BME280;25081;42.698;23.298;2022-12-05T00:47:00;96224.05;;;4.17;93.75
6096;BME280;25081;42.698;23.298;2022-12-05T00:49:11;96218.33;;;4.26;93.71
6096;BME280;25081;42.698;23.298;2022-12-05T00:51:22;96230.98;;;4.22;93.56
6096;BME280;25081;42.698;23.298;2022-12-05T00:53:32;96225.97;;;4.11;93.95
6096;BME280;25081;42.698;23.298;2022-12-05T00:55:42;96221.80;;;4.05;94.52
6096;BME280;25081;42.698;23.298;2022-12-05T00:57:53;96217.34;;;4.05;94.74
6096;BME280;25081;42.698;23.298;2022-12-05T01:00:04;96220.36;;;4.10;94.59
6096;BME280;25081;42.698;23.298;2022-12-05T01:02:15;96208.97;;;4.06;94.84
6096;BME280;25081;42.698;23.298;2022-12-05T01:04:25;96205.52;;;4.09;94.59
6096;BME280;25081;42.698;23.298;2022-12-05T01:06:36;96208.98;;;4.10;94.72
6096;BME280;25081;42.698;23.298;2022-12-05T01:08:46;96204.86;;;4.11;94.65
6096;BME280;25081;42.698;23.298;2022-12-05T01:10:57;96204.86;;;4.11;94.66
6096;BME280;25081;42.698;23.298;2022-12-05T01:13:07;96201.67;;;4.03;94.83
6096;BME280;25081;42.698;23.298;2022-12-05T01:15:18;96199.41;;;4.09;95.00
6096;BME280;25081;42.698;23.298;2022-12-05T01:17:28;96195.80;;;4.14;94.61
6096;BME280;25081;42.698;23.298;2022-12-05T01:19:38;96195.79;;;4.10;94.75
6096;BME280;25081;42.698;23.298;2022-12-05T01:21:49;96197.72;;;4.03;94.85
6096;BME280;25081;42.698;23.298;2022-12-05T01:23:59;96204.74;;;3.95;95.32
6096;BME280;25081;42.698;23.298;2022-12-05T01:26:10;96201.52;;;4.05;95.15
6096;BME280;25081;42.698;23.298;2022-12-05T01:28:20;96201.56;;;4.09;94.84
6096;BME280;25081;42.698;23.298;2022-12-05T01:30:31;96195.84;;;4.18;94.93
6096;BME280;25081;42.698;23.298;2022-12-05T01:32:41;96196.70;;;3.96;95.00
6096;BME280;25081;42.698;23.298;2022-12-05T01:34:52;96189.89;;;3.90;95.61
6096;BME280;25081;42.698;23.298;2022-12-05T01:37:03;96187.27;;;3.94;95.72
6096;BME280;25081;42.698;23.298;2022-12-05T01:39:13;96182.20;;;4.00;95.63
6096;BME280;25081;42.698;23.298;2022-12-05T01:41:25;96182.42;;;4.07;95.38
6096;BME280;25081;42.698;23.298;2022-12-05T01:43:51;96183.35;;;3.98;95.29
6096;BME280;25081;42.698;23.298;2022-12-05T01:46:02;96181.16;;;3.93;95.69
6096;BME280;25081;42.698;23.298;2022-12-05T01:48:13;96175.88;;;3.93;96.05
6096;BME280;25081;42.698;23.298;2022-12-05T01:50:23;96176.19;;;3.86;96.30
6096;BME280;25081;42.698;23.298;2022-12-05T01:52:34;96178.19;;;3.92;96.17
6096;BME280;25081;42.698;23.298;2022-12-05T01:54:44;96175.39;;;3.94;95.72
6096;BME280;25081;42.698;23.298;2022-12-05T01:56:55;96177.75;;;4.01;95.69
6096;BME280;25081;42.698;23.298;2022-12-05T01:59:06;96175.13;;;4.05;95.51
6096;BME280;25081;42.698;23.298;2022-12-05T02:01:16;96176.81;;;4.06;95.32
6096;BME280;25081;42.698;23.298;2022-12-05T02:03:26;96174.13;;;4.02;95.37
6096;BME280;25081;42.698;23.298;2022-12-05T02:05:37;96175.52;;;4.14;95.45
6096;BME280;25081;42.698;23.298;2022-12-05T02:07:47;96166.16;;;4.16;94.80
6096;BME280;25081;42.698;23.298;2022-12-05T02:09:57;96172.64;;;4.25;94.83
6096;BME280;25081;42.698;23.298;2022-12-05T02:12:08;96179.68;;;4.17;94.31
6096;BME280;25081;42.698;23.298;2022-12-05T02:14:23;96182.00;;;4.20;94.44
6096;BME280;25081;42.698;23.298;2022-12-05T02:16:38;96185.84;;;4.25;94.23
6096;BME280;25081;42.698;23.298;2022-12-05T02:18:51;96178.09;;;4.32;94.08
6096;BME280;25081;42.698;23.298;2022-12-05T02:24:10;96172.28;;;4.24;94.40
6096;BME280;25081;42.698;23.298;2022-12-05T02:26:56;96180.47;;;4.13;94.66
6096;BME280;25081;42.698;23.298;2022-12-05T02:29:52;96179.36;;;4.20;94.66
6096;BME280;25081;42.698;23.298;2022-12-05T02:34:24;96177.44;;;4.30;94.43
6096;BME280;25081;42.698;23.298;2022-12-05T02:36:35;96170.95;;;4.20;94.59
6096;BME280;25081;42.698;23.298;2022-12-05T02:38:48;96172.75;;;4.16;94.50
6096;BME280;25081;42.698;23.298;2022-12-05T02:41:00;96176.22;;;4.16;94.67
6096;BME280;25081;42.698;23.298;2022-12-05T02:43:11;96172.76;;;4.20;94.68
6096;BME280;25081;42.698;23.298;2022-12-05T02:45:22;96165.00;;;4.18;94.98
6096;BME280;25081;42.698;23.298;2022-12-05T02:47:33;96162.20;;;4.20;94.45
6096;BME280;25081;42.698;23.298;2022-12-05T02:49:43;96164.19;;;4.22;94.71
6096;BME280;25081;42.698;23.298;2022-12-05T02:51:56;96157.97;;;4.27;94.63
6096;BME280;25081;42.698;23.298;2022-12-05T02:54:06;96154.79;;;4.23;94.31
6096;BME280;25081;42.698;23.298;2022-12-05T02:56:16;96162.86;;;4.18;94.84
6096;BME280;25081;42.698;23.298;2022-12-05T02:58:27;96156.77;;;4.21;94.58
6096;BME280;25081;42.698;23.298;2022-12-05T03:00:38;96151.86;;;4.26;94.63
6096;BME280;25081;42.698;23.298;2022-12-05T03:02:49;96156.53;;;4.41;94.44
6096;BME280;25081;42.698;23.298;2022-12-05T03:05:01;96155.88;;;4.43;93.59
6096;BME280;25081;42.698;23.298;2022-12-05T03:07:11;96158.84;;;4.36;93.56
6096;BME280;25081;42.698;23.298;2022-12-05T03:09:22;96150.47;;;4.44;93.62
6096;BME280;25081;42.698;23.298;2022-12-05T03:11:33;96154.77;;;4.53;93.44
6096;BME280;25081;42.698;23.298;2022-12-05T03:13:43;96155.75;;;4.52;93.00
6096;BME280;25081;42.698;23.298;2022-12-05T03:15:55;96150.02;;;4.57;92.87
6096;BME280;25081;42.698;23.298;2022-12-05T03:18:06;96150.84;;;4.57;92.92
6096;BME280;25081;42.698;23.298;2022-12-05T03:20:18;96149.69;;;4.60;92.79
6096;BME280;25081;42.698;23.298;2022-12-05T03:22:29;96149.61;;;4.44;92.78
6096;BME280;25081;42.698;23.298;2022-12-05T03:24:38;96152.90;;;4.38;93.30
6096;BME280;25081;42.698;23.298;2022-12-05T03:26:52;96156.20;;;4.36;93.86
6096;BME280;25081;42.698;23.298;2022-12-05T03:29:02;96158.02;;;4.43;93.81
6096;BME280;25081;42.698;23.298;2022-12-05T03:31:12;96165.20;;;4.59;93.48
6096;BME280;25081;42.698;23.298;2022-12-05T03:33:23;96155.79;;;4.60;92.71
6096;BME280;25081;42.698;23.298;2022-12-05T03:35:35;96164.24;;;4.68;92.30
6096;BME280;25081;42.698;23.298;2022-12-05T03:37:46;96169.20;;;4.67;91.95
6096;BME280;25081;42.698;23.298;2022-12-05T03:39:59;96162.88;;;4.56;91.83
6096;BME280;25081;42.698;23.298;2022-12-05T03:42:11;96161.23;;;4.55;91.92
6096;BME280;25081;42.698;23.298;2022-12-05T03:44:22;96159.75;;;4.60;91.76
6096;BME280;25081;42.698;23.298;2022-12-05T03:46:31;96160.87;;;4.50;91.90
6096;BME280;25081;42.698;23.298;2022-12-05T03:48:44;96157.73;;;4.46;92.41
6096;BME280;25081;42.698;23.298;2022-12-05T03:50:52;96150.09;;;4.35;92.25
6096;BME280;25081;42.698;23.298;2022-12-05T03:53:04;96157.18;;;4.35;92.76
6096;BME280;25081;42.698;23.298;2022-12-05T03:55:14;96152.25;;;4.44;92.64
6096;BME280;25081;42.698;23.298;2022-12-05T03:57:26;96164.16;;;4.48;92.50
6096;BME280;25081;42.698;23.298;2022-12-05T03:59:36;96160.41;;;4.54;92.69
6096;BME280;25081;42.698;23.298;2022-12-05T04:01:46;96161.36;;;4.49;92.26
6096;BME280;25081;42.698;23.298;2022-12-05T04:03:57;96161.31;;;4.37;92.44
6096;BME280;25081;42.698;23.298;2022-12-05T04:06:09;96174.63;;;4.31;92.64
6096;BME280;25081;42.698;23.298;2022-12-05T04:08:20;96165.77;;;4.37;92.92
6096;BME280;25081;42.698;23.298;2022-12-05T04:10:30;96157.80;;;4.33;93.01
6096;BME280;25081;42.698;23.298;2022-12-05T04:12:41;96155.99;;;4.33;92.71
6096;BME280;25081;42.698;23.298;2022-12-05T04:14:52;96156.03;;;4.37;92.81
6096;BME280;25081;42.698;23.298;2022-12-05T04:17:03;96151.25;;;4.41;92.59
6096;BME280;25081;42.698;23.298;2022-12-05T04:19:15;96144.66;;;4.41;92.72
6096;BME280;25081;42.698;23.298;2022-12-05T04:21:26;96148.48;;;4.50;92.62
6096;BME280;25081;42.698;23.298;2022-12-05T04:23:47;96145.15;;;4.40;92.30
6096;BME280;25081;42.698;23.298;2022-12-05T04:25:59;96136.52;;;4.30;92.80
6096;BME280;25081;42.698;23.298;2022-12-05T04:28:15;96142.91;;;4.23;93.40
6096;BME280;25081;42.698;23.298;2022-12-05T04:30:25;96137.72;;;4.36;93.12
6096;BME280;25081;42.698;23.298;2022-12-05T04:32:37;96141.89;;;4.46;92.92
6096;BME280;25081;42.698;23.298;2022-12-05T04:34:48;96144.45;;;4.34;92.77
6096;BME280;25081;42.698;23.298;2022-12-05T04:36:58;96145.55;;;4.23;93.51
6096;BME280;25081;42.698;23.298;2022-12-05T04:39:09;96151.54;;;4.34;93.63
6096;BME280;25081;42.698;23.298;2022-12-05T04:41:19;96147.90;;;4.26;93.51
6096;BME280;25081;42.698;23.298;2022-12-05T04:43:30;96157.97;;;4.31;93.20
6096;BME280;25081;42.698;23.298;2022-12-05T04:45:40;96166.16;;;4.20;93.76
6096;BME280;25081;42.698;23.298;2022-12-05T04:47:52;96159.58;;;4.24;93.98
6096;BME280;25081;42.698;23.298;2022-12-05T04:50:01;96159.82;;;4.35;93.62
6096;BME280;25081;42.698;23.298;2022-12-05T04:52:11;96156.53;;;4.37;93.35
6096;BME280;25081;42.698;23.298;2022-12-05T04:54:22;96160.78;;;4.34;93.30
6096;BME280;25081;42.698;23.298;2022-12-05T04:56:32;96160.48;;;4.37;93.38
6096;BME280;25081;42.698;23.298;2022-12-05T04:58:43;96153.34;;;4.29;93.63
6096;BME280;25081;42.698;23.298;2022-12-05T05:00:54;96165.23;;;4.33;93.64
6096;BME280;25081;42.698;23.298;2022-12-05T05:03:05;96157.39;;;4.45;93.25
6096;BME280;25081;42.698;23.298;2022-12-05T05:05:16;96165.44;;;4.40;92.92
6096;BME280;25081;42.698;23.298;2022-12-05T05:07:26;96165.10;;;4.35;93.06
6096;BME280;25081;42.698;23.298;2022-12-05T05:09:37;96168.62;;;4.47;93.51
6096;BME280;25081;42.698;23.298;2022-12-05T05:11:47;96169.11;;;4.47;92.98
6096;BME280;25081;42.698;23.298;2022-12-05T05:13:57;96174.44;;;4.59;92.66
6096;BME280;25081;42.698;23.298;2022-12-05T05:16:11;96167.18;;;4.61;92.08
6096;BME280;25081;42.698;23.298;2022-12-05T05:18:22;96180.09;;;4.64;92.15
6096;BME280;25081;42.698;23.298;2022-12-05T05:20:32;96184.55;;;4.68;91.84
6096;BME280;25081;42.698;23.298;2022-12-05T05:22:42;96185.50;;;4.58;91.81
6096;BME280;25081;42.698;23.298;2022-12-05T05:24:53;96190.28;;;4.55;92.15
6096;BME280;25081;42.698;23.298;2022-12-05T05:27:04;96196.30;;;4.43;92.55
6096;BME280;25081;42.698;23.298;2022-12-05T05:29:14;96193.20;;;4.48;92.61
6096;BME280;25081;42.698;23.298;2022-12-05T05:31:25;96191.27;;;4.54;92.50
6096;BME280;25081;42.698;23.298;2022-12-05T05:33:35;96191.89;;;4.52;92.42
6096;BME280;25081;42.698;23.298;2022-12-05T05:35:45;96191.40;;;4.52;92.30
6096;BME280;25081;42.698;23.298;2022-12-05T05:37:56;96190.07;;;4.48;92.56
6096;BME280;25081;42.698;23.298;2022-12-05T05:40:11;96188.96;;;4.59;92.38
6096;BME280;25081;42.698;23.298;2022-12-05T05:42:21;96194.28;;;4.67;92.08
6096;BME280;25081;42.698;23.298;2022-12-05T05:44:31;96181.90;;;4.64;91.68
6096;BME280;25081;42.698;23.298;2022-12-05T05:46:42;96183.19;;;4.59;91.91
6096;BME280;25081;42.698;23.298;2022-12-05T05:48:52;96187.44;;;4.52;92.30
6096;BME280;25081;42.698;23.298;2022-12-05T05:51:03;96188.14;;;4.58;92.20
6096;BME280;25081;42.698;23.298;2022-12-05T05:53:13;96185.66;;;4.61;92.12
6096;BME280;25081;42.698;23.298;2022-12-05T05:55:24;96192.80;;;4.65;91.91
6096;BME280;25081;42.698;23.298;2022-12-05T05:57:35;96192.14;;;4.67;91.87
6096;BME280;25081;42.698;23.298;2022-12-05T05:59:45;96200.43;;;4.76;91.68
6096;BME280;25081;42.698;23.298;2022-12-05T06:01:56;96204.92;;;4.83;91.57
6096;BME280;25081;42.698;23.298;2022-12-05T06:04:06;96211.07;;;5.00;91.37
6096;BME280;25081;42.698;23.298;2022-12-05T06:06:17;96204.98;;;5.08;90.29
6096;BME280;25081;42.698;23.298;2022-12-05T06:08:29;96207.44;;;5.01;89.81
6096;BME280;25081;42.698;23.298;2022-12-05T06:10:39;96198.02;;;4.95;90.04
6096;BME280;25081;42.698;23.298;2022-12-05T06:12:50;96206.28;;;4.96;90.02
6096;BME280;25081;42.698;23.298;2022-12-05T06:15:00;96206.61;;;4.97;89.81
6096;BME280;25081;42.698;23.298;2022-12-05T06:17:11;96209.75;;;5.00;89.65
6096;BME280;25081;42.698;23.298;2022-12-05T06:19:21;96207.27;;;4.99;89.74
6096;BME280;25081;42.698;23.298;2022-12-05T06:21:32;96206.77;;;4.99;89.50
6096;BME280;25081;42.698;23.298;2022-12-05T06:23:42;96212.65;;;4.81;90.32
6096;BME280;25081;42.698;23.298;2022-12-05T06:25:54;96215.03;;;4.58;91.16
6096;BME280;25081;42.698;23.298;2022-12-05T06:28:03;96218.38;;;4.68;91.39
6096;BME280;25081;42.698;23.298;2022-12-05T06:30:15;96208.03;;;4.79;91.20
6096;BME280;25081;42.698;23.298;2022-12-05T06:32:27;96203.77;;;4.86;90.30
6096;BME280;25081;42.698;23.298;2022-12-05T06:34:38;96206.88;;;4.77;90.78
6096;BME280;25081;42.698;23.298;2022-12-05T06:36:48;96212.36;;;4.88;90.55
6096;BME280;25081;42.698;23.298;2022-12-05T06:38:59;96212.03;;;4.87;90.32
6096;BME280;25081;42.698;23.298;2022-12-05T06:41:10;96214.17;;;4.92;90.25
6096;BME280;25081;42.698;23.298;2022-12-05T06:43:20;96227.50;;;4.78;90.54
6096;BME280;25081;42.698;23.298;2022-12-05T06:45:31;96216.28;;;4.80;90.88
6096;BME280;25081;42.698;23.298;2022-12-05T06:47:41;96215.36;;;4.93;90.85
6096;BME280;25081;42.698;23.298;2022-12-05T06:49:52;96214.38;;;4.98;89.77
6096;BME280;25081;42.698;23.298;2022-12-05T06:52:02;96217.84;;;4.95;89.81
6096;BME280;25081;42.698;23.298;2022-12-05T06:54:13;96216.94;;;4.78;90.51
6096;BME280;25081;42.698;23.298;2022-12-05T06:56:23;96220.12;;;4.85;90.48
6096;BME280;25081;42.698;23.298;2022-12-05T06:58:34;96216.81;;;4.92;90.09
6096;BME280;25081;42.698;23.298;2022-12-05T07:00:44;96222.55;;;4.75;90.59
6096;BME280;25081;42.698;23.298;2022-12-05T07:03:12;96217.72;;;4.66;91.10
6096;BME280;25081;42.698;23.298;2022-12-05T07:05:23;96212.81;;;4.75;90.99
6096;BME280;25081;42.698;23.298;2022-12-05T07:07:33;96216.56;;;4.69;90.96
6096;BME280;25081;42.698;23.298;2022-12-05T07:09:44;96218.59;;;4.79;90.70
6096;BME280;25081;42.698;23.298;2022-12-05T07:11:55;96222.59;;;4.87;90.45
6096;BME280;25081;42.698;23.298;2022-12-05T07:14:06;96218.66;;;4.95;90.03
6096;BME280;25081;42.698;23.298;2022-12-05T07:16:16;96216.88;;;5.04;89.63
6096;BME280;25081;42.698;23.298;2022-12-05T07:18:27;96222.53;;;5.13;88.74
6096;BME280;25081;42.698;23.298;2022-12-05T07:20:37;96229.98;;;5.26;88.64
6096;BME280;25081;42.698;23.298;2022-12-05T07:22:48;96228.53;;;5.31;88.19
6096;BME280;25081;42.698;23.298;2022-12-05T07:24:58;96225.88;;;5.39;88.09
6096;BME280;25081;42.698;23.298;2022-12-05T07:27:09;96229.84;;;5.35;87.04
6096;BME280;25081;42.698;23.298;2022-12-05T07:29:19;96230.98;;;5.29;87.63
6096;BME280;25081;42.698;23.298;2022-12-05T07:31:30;96227.20;;;5.35;87.30
6096;BME280;25081;42.698;23.298;2022-12-05T07:36:03;96226.30;;;5.10;88.47
6096;BME280;25081;42.698;23.298;2022-12-05T07:38:12;96240.86;;;5.14;88.52
6096;BME280;25081;42.698;23.298;2022-12-05T07:40:23;96238.19;;;5.02;88.87
6096;BME280;25081;42.698;23.298;2022-12-05T07:42:33;96238.98;;;4.99;89.42
6096;BME280;25081;42.698;23.298;2022-12-05T07:44:44;96241.29;;;4.94;89.71
6096;BME280;25081;42.698;23.298;2022-12-05T07:46:54;96235.37;;;5.04;89.88
6096;BME280;25081;42.698;23.298;2022-12-05T07:49:05;96241.03;;;5.13;89.21
6096;BME280;25081;42.698;23.298;2022-12-05T07:51:15;96240.00;;;5.06;89.44
6096;BME280;25081;42.698;23.298;2022-12-05T07:53:25;96237.53;;;5.04;89.37
6096;BME280;25081;42.698;23.298;2022-12-05T07:55:37;96240.20;;;5.12;89.60
6096;BME280;25081;42.698;23.298;2022-12-05T07:57:47;96241.36;;;5.14;89.18
6096;BME280;25081;42.698;23.298;2022-12-05T07:59:58;96236.78;;;5.36;88.86
6096;BME280;25081;42.698;23.298;2022-12-05T08:02:09;96229.36;;;5.48;88.07
6096;BME280;25081;42.698;23.298;2022-12-05T08:04:19;96230.38;;;5.55;87.31
6096;BME280;25081;42.698;23.298;2022-12-05T08:06:30;96229.02;;;5.39;87.78
6096;BME280;25081;42.698;23.298;2022-12-05T08:08:40;96223.58;;;5.49;87.60
6096;BME280;25081;42.698;23.298;2022-12-05T08:10:51;96130.30;;;4.85;87.01
6096;BME280;25081;42.698;23.298;2022-12-05T08:13:01;96231.75;;;5.05;88.86
6096;BME280;25081;42.698;23.298;2022-12-05T08:15:12;96238.85;;;5.08;89.38
6096;BME280;25081;42.698;23.298;2022-12-05T08:17:23;96245.69;;;5.23;88.86
6096;BME280;25081;42.698;23.298;2022-12-05T08:19:34;96242.84;;;5.21;88.72
6096;BME280;25081;42.698;23.298;2022-12-05T08:21:44;96240.34;;;5.11;88.92
6096;BME280;25081;42.698;23.298;2022-12-05T08:23:54;96247.77;;;5.07;89.42
6096;BME280;25081;42.698;23.298;2022-12-05T08:26:06;96253.72;;;5.05;89.71
6096;BME280;25081;42.698;23.298;2022-12-05T08:28:16;96243.34;;;5.20;89.20
6096;BME280;25081;42.698;23.298;2022-12-05T08:30:26;96240.77;;;5.44;88.54
6096;BME280;25081;42.698;23.298;2022-12-05T08:32:37;96236.83;;;5.53;87.43
6096;BME280;25081;42.698;23.298;2022-12-05T08:34:47;96242.12;;;5.53;87.17
6096;BME280;25081;42.698;23.298;2022-12-05T08:36:58;96241.09;;;5.50;87.46
6096;BME280;25081;42.698;23.298;2022-12-05T08:39:09;96239.96;;;5.56;86.71
6096;BME280;25081;42.698;23.298;2022-12-05T08:41:19;96234.34;;;5.59;86.99
6096;BME280;25081;42.698;23.298;2022-12-05T08:43:30;96236.48;;;5.43;87.41
6096;BME280;25081;42.698;23.298;2022-12-05T08:45:40;96240.11;;;5.42;87.71
6096;BME280;25081;42.698;23.298;2022-12-05T08:47:51;96233.83;;;5.43;87.30
6096;BME280;25081;42.698;23.298;2022-12-05T08:50:01;96233.69;;;5.53;87.15
6096;BME280;25081;42.698;23.298;2022-12-05T08:52:12;96224.11;;;5.64;86.91
6096;BME280;25081;42.698;23.298;2022-12-05T08:54:23;96230.41;;;5.84;85.65
6096;BME280;25081;42.698;23.298;2022-12-05T08:56:33;96244.13;;;5.75;85.32
6096;BME280;25081;42.698;23.298;2022-12-05T08:58:44;96234.88;;;5.83;85.91
6096;BME280;25081;42.698;23.298;2022-12-05T09:00:54;96230.12;;;5.99;84.98
6096;BME280;25081;42.698;23.298;2022-12-05T09:03:05;96230.76;;;6.13;84.42
6096;BME280;25081;42.698;23.298;2022-12-05T09:05:15;96233.89;;;6.17;83.61
6096;BME280;25081;42.698;23.298;2022-12-05T09:07:26;96232.08;;;6.13;83.80
6096;BME280;25081;42.698;23.298;2022-12-05T09:09:36;96238.88;;;5.99;84.33
6096;BME280;25081;42.698;23.298;2022-12-05T09:11:47;96239.02;;;5.90;84.86
6096;BME280;25081;42.698;23.298;2022-12-05T09:13:58;96233.25;;;5.94;84.80
6096;BME280;25081;42.698;23.298;2022-12-05T09:16:09;96228.44;;;6.22;83.89
6096;BME280;25081;42.698;23.298;2022-12-05T09:18:19;96227.58;;;6.42;82.67
6096;BME280;25081;42.698;23.298;2022-12-05T09:20:29;96226.44;;;6.33;82.50
6096;BME280;25081;42.698;23.298;2022-12-05T09:22:40;96224.08;;;6.46;82.30
6096;BME280;25081;42.698;23.298;2022-12-05T09:24:50;96219.61;;;6.46;81.91
6096;BME280;25081;42.698;23.298;2022-12-05T09:27:01;96220.41;;;6.63;80.93
6096;BME280;25081;42.698;23.298;2022-12-05T09:29:12;96221.02;;;6.85;80.29
6096;BME280;25081;42.698;23.298;2022-12-05T09:31:23;96213.80;;;7.02;79.13
6096;BME280;25081;42.698;23.298;2022-12-05T09:33:33;96210.82;;;7.05;78.67
6096;BME280;25081;42.698;23.298;2022-12-05T09:35:43;96210.75;;;7.13;78.63
6096;BME280;25081;42.698;23.298;2022-12-05T09:37:53;96209.89;;;7.21;78.19
6096;BME280;25081;42.698;23.298;2022-12-05T09:40:06;96210.11;;;7.11;77.94
6096;BME280;25081;42.698;23.298;2022-12-05T09:42:38;96209.17;;;7.00;78.24
6096;BME280;25081;42.698;23.298;2022-12-05T09:45:00;96211.35;;;6.97;78.63
6096;BME280;25081;42.698;23.298;2022-12-05T09:47:12;96203.61;;;6.87;79.12
6096;BME280;25081;42.698;23.298;2022-12-05T09:49:22;96200.23;;;6.46;80.01
6096;BME280;25081;42.698;23.298;2022-12-05T09:51:41;96200.98;;;6.11;81.81
6096;BME280;25081;42.698;23.298;2022-12-05T09:53:43;96200.64;;;6.06;82.28
6096;BME280;25081;42.698;23.298;2022-12-05T09:55:54;96199.33;;;5.98;82.79
6096;BME280;25081;42.698;23.298;2022-12-05T09:58:05;96192.66;;;6.47;86.36
6096;BME280;25081;42.698;23.298;2022-12-05T10:00:16;96192.16;;;6.47;81.04
6096;BME280;25081;42.698;23.298;2022-12-05T10:02:31;96196.95;;;6.48;80.82
6096;BME280;25081;42.698;23.298;2022-12-05T10:04:50;96197.30;;;6.41;80.87
6096;BME280;25081;42.698;23.298;2022-12-05T10:07:02;96188.02;;;6.41;80.99
6096;BME280;25081;42.698;23.298;2022-12-05T10:09:31;96184.59;;;6.20;81.32
6096;BME280;25081;42.698;23.298;2022-12-05T10:11:42;96184.92;;;6.21;81.19
6096;BME280;25081;42.698;23.298;2022-12-05T10:13:54;96182.66;;;7.00;89.03
6096;BME280;25081;42.698;23.298;2022-12-05T10:16:04;96185.70;;;6.85;79.55
6096;BME280;25081;42.698;23.298;2022-12-05T10:18:19;96180.76;;;7.17;80.78
6096;BME280;25081;42.698;23.298;2022-12-05T10:20:27;96174.06;;;6.94;78.16
6096;BME280;25081;42.698;23.298;2022-12-05T10:22:38;96178.75;;;6.84;78.81
6096;BME280;25081;42.698;23.298;2022-12-05T10:24:48;96179.19;;;6.60;79.53
6096;BME280;25081;42.698;23.298;2022-12-05T10:26:59;96182.42;;;6.23;80.80
6096;BME280;25081;42.698;23.298;2022-12-05T10:29:13;96177.94;;;6.32;81.18
6096;BME280;25081;42.698;23.298;2022-12-05T10:31:23;96168.33;;;6.39;80.70
6096;BME280;25081;42.698;23.298;2022-12-05T10:33:35;96173.50;;;6.20;81.31
6096;BME280;25081;42.698;23.298;2022-12-05T10:35:44;96179.31;;;6.12;82.07
6096;BME280;25081;42.698;23.298;2022-12-05T10:37:55;96175.00;;;6.07;82.22
6096;BME280;25081;42.698;23.298;2022-12-05T10:40:10;96174.17;;;6.14;82.31
6096;BME280;25081;42.698;23.298;2022-12-05T10:42:18;96167.20;;;6.29;81.69
6096;BME280;25081;42.698;23.298;2022-12-05T10:44:30;96168.39;;;6.11;82.21
6096;BME280;25081;42.698;23.298;2022-12-05T10:46:40;96168.22;;;6.12;82.48
6096;BME280;25081;42.698;23.298;2022-12-05T10:48:51;96161.57;;;6.24;82.19
6096;BME280;25081;42.698;23.298;2022-12-05T10:51:01;96156.73;;;6.36;81.69
6096;BME280;25081;42.698;23.298;2022-12-05T10:53:15;96148.79;;;6.36;81.68
6096;BME280;25081;42.698;23.298;2022-12-05T10:55:24;96160.31;;;6.55;81.20
6096;BME280;25081;42.698;23.298;2022-12-05T10:57:34;96158.99;;;6.59;81.02
6096;BME280;25081;42.698;23.298;2022-12-05T10:59:46;96158.84;;;6.53;81.02
6096;BME280;25081;42.698;23.298;2022-12-05T11:01:56;96152.72;;;6.56;81.40
6096;BME280;25081;42.698;23.298;2022-12-05T11:04:09;96158.05;;;6.48;81.11
6096;BME280;25081;42.698;23.298;2022-12-05T11:06:23;96151.44;;;6.36;81.41
6096;BME280;25081;42.698;23.298;2022-12-05T11:08:31;96146.27;;;6.51;81.58
6096;BME280;25081;42.698;23.298;2022-12-05T11:10:41;96151.12;;;6.39;81.63
6096;BME280;25081;42.698;23.298;2022-12-05T11:12:52;96148.80;;;6.40;81.77
6096;BME280;25081;42.698;23.298;2022-12-05T11:15:04;96150.89;;;6.53;81.42
6096;BME280;25081;42.698;23.298;2022-12-05T11:17:21;96139.80;;;6.53;81.24
6096;BME280;25081;42.698;23.298;2022-12-05T11:19:26;96141.30;;;6.52;81.39
6096;BME280;25081;42.698;23.298;2022-12-05T11:21:42;96137.35;;;6.48;81.32
6096;BME280;25081;42.698;23.298;2022-12-05T11:23:52;96140.50;;;6.43;81.52
6096;BME280;25081;42.698;23.298;2022-12-05T11:26:03;96134.23;;;6.40;82.33
6096;BME280;25081;42.698;23.298;2022-12-05T11:28:33;96133.05;;;6.43;82.08
6096;BME280;25081;42.698;23.298;2022-12-05T11:30:46;96132.58;;;6.35;82.56
6096;BME280;25081;42.698;23.298;2022-12-05T11:33:16;96129.16;;;6.14;83.31
6096;BME280;25081;42.698;23.298;2022-12-05T11:35:25;96124.38;;;6.18;83.37
6096;BME280;25081;42.698;23.298;2022-12-05T11:39:55;96109.70;;;5.99;84.51
6096;BME280;25081;42.698;23.298;2022-12-05T11:42:22;96114.80;;;6.09;84.12
6096;BME280;25081;42.698;23.298;2022-12-05T11:44:50;96113.98;;;6.08;83.81
6096;BME280;25081;42.698;23.298;2022-12-05T11:47:03;96109.19;;;5.95;84.39
6096;BME280;25081;42.698;23.298;2022-12-05T11:49:22;96104.91;;;5.98;84.20
6096;BME280;25081;42.698;23.298;2022-12-05T11:51:37;96103.88;;;6.03;84.11
6096;BME280;25081;42.698;23.298;2022-12-05T11:54:31;96098.44;;;6.01;84.24
6096;BME280;25081;42.698;23.298;2022-12-05T11:56:42;96093.25;;;6.16;83.46